createdAt,value
2022-12-24T00:04:45.806Z,99074.45
2022-12-24T00:09:49.684Z,99062.06
2022-12-24T00:14:53.556Z,99062.71
2022-12-24T00:19:57.437Z,99042.27
2022-12-24T00:25:01.362Z,99050.62
2022-12-24T00:30:05.680Z,99057.71
2022-12-24T00:35:09.723Z,99064.88
2022-12-24T00:40:13.718Z,99061.86
2022-12-24T00:45:17.597Z,99069.81
2022-12-24T00:50:21.317Z,99076.06
2022-12-24T00:55:25.166Z,99060.41
2022-12-24T01:00:29.017Z,99071.76
2022-12-24T01:05:32.832Z,99085.80
2022-12-24T01:10:36.574Z,99082.48
2022-12-24T01:15:40.358Z,99078.40
2022-12-24T01:20:44.262Z,99069.04
2022-12-24T01:25:48.087Z,99070.23
2022-12-24T01:30:51.897Z,99070.48
2022-12-24T01:35:55.892Z,99060.55
2022-12-24T01:41:18.162Z,99060.83
2022-12-24T01:46:29.297Z,99060.31
2022-12-24T01:51:42.977Z,99057.28
2022-12-24T01:56:54.672Z,99055.34
2022-12-24T02:01:58.828Z,99059.89
2022-12-24T02:07:02.902Z,99060.84
2022-12-24T02:12:07.339Z,99057.86
2022-12-24T02:17:19.654Z,99053.41
2022-12-24T02:22:57.583Z,99049.65
2022-12-24T02:28:27.737Z,99046.22
2022-12-24T02:34:13.273Z,99048.23
2022-12-24T02:39:24.764Z,99056.56
2022-12-24T02:44:31.054Z,99051.84
2022-12-24T02:49:36.466Z,99055.58
2022-12-24T02:54:40.305Z,99052.75
2022-12-24T03:00:05.278Z,99049.88
2022-12-24T03:05:18.146Z,99045.86
2022-12-24T03:10:30.230Z,99044.34
2022-12-24T03:15:34.609Z,99050.94
2022-12-24T03:20:41.797Z,99055.23
2022-12-24T03:25:46.080Z,99054.56
2022-12-24T03:30:49.981Z,99051.70
2022-12-24T03:35:53.696Z,99052.41
2022-12-24T03:40:57.533Z,99061.89
2022-12-24T03:46:06.857Z,99059.77
2022-12-24T03:51:22.276Z,99063.20
2022-12-24T03:56:26.550Z,99066.04
2022-12-24T04:01:30.919Z,99071.61
2022-12-24T04:06:35.082Z,99070.23
2022-12-24T04:11:38.898Z,99069.35
2022-12-24T04:16:42.665Z,99074.45
2022-12-24T04:21:46.470Z,99083.15
2022-12-24T04:26:50.246Z,99076.98
2022-12-24T04:31:54.001Z,99073.99
2022-12-24T04:36:57.735Z,99074.00
2022-12-24T04:42:01.628Z,99080.59
2022-12-24T04:47:05.409Z,99079.95
2022-12-24T04:52:09.146Z,99081.64
2022-12-24T04:57:12.986Z,99084.70
2022-12-24T05:02:17.090Z,99085.81
2022-12-24T05:07:21.347Z,99095.33
2022-12-24T05:12:25.174Z,99103.96
2022-12-24T05:17:28.966Z,99115.55
2022-12-24T05:22:51.428Z,99122.92
2022-12-24T05:27:55.232Z,99118.04
2022-12-24T05:32:59.108Z,99120.80
2022-12-24T05:38:02.964Z,99126.21
2022-12-24T05:43:06.740Z,99135.17
2022-12-24T05:48:10.414Z,99145.66
2022-12-24T05:53:14.257Z,99151.44
2022-12-24T05:58:18.197Z,99160.02
2022-12-24T06:03:22.012Z,99168.60
2022-12-24T06:08:25.803Z,99179.60
2022-12-24T06:13:30.226Z,99184.95
2022-12-24T06:18:35.369Z,99192.13
2022-12-24T06:23:40.938Z,99192.42
2022-12-24T06:28:45.550Z,99201.74
2022-12-24T06:33:50.000Z,99213.61
2022-12-24T06:38:55.012Z,99216.86
2022-12-24T06:43:58.959Z,99220.39
2022-12-24T06:49:03.128Z,99227.93
2022-12-24T06:54:06.870Z,99238.11
2022-12-24T06:59:10.617Z,99245.66
2022-12-24T07:04:19.919Z,99251.79
2022-12-24T07:09:24.462Z,99260.48
2022-12-24T07:14:28.234Z,99271.19
2022-12-24T07:19:31.980Z,99280.69
2022-12-24T07:24:35.787Z,99295.35
2022-12-24T07:29:40.848Z,99309.63
2022-12-24T07:34:44.565Z,99326.48
2022-12-24T07:39:48.440Z,99341.79
2022-12-24T07:44:52.199Z,99354.70
2022-12-24T07:49:56.025Z,99356.34
2022-12-24T07:54:59.765Z,99367.67
2022-12-24T08:00:04.545Z,99379.34
2022-12-24T08:05:15.705Z,99389.41
2022-12-24T08:10:19.565Z,99399.18
2022-12-24T08:15:23.320Z,99405.01
2022-12-24T08:20:27.344Z,99411.57
2022-12-24T08:25:31.107Z,99421.93
2022-12-24T08:30:35.205Z,99434.05
2022-12-24T08:35:38.995Z,99443.34
2022-12-24T08:41:16.946Z,99452.29
2022-12-24T08:46:43.863Z,99471.50
2022-12-24T08:51:51.508Z,99483.48
2022-12-24T08:56:57.055Z,99492.55
2022-12-24T09:02:08.117Z,99497.05
2022-12-24T09:07:16.983Z,99508.45
2022-12-24T09:12:20.930Z,99513.19
2022-12-24T09:17:24.838Z,99519.09
2022-12-24T09:22:30.287Z,99522.44
2022-12-24T09:27:34.590Z,99530.52
2022-12-24T09:32:38.398Z,99541.73
2022-12-24T09:37:42.087Z,99552.86
2022-12-24T09:42:53.863Z,99558.96
2022-12-24T09:48:05.891Z,99570.02
2022-12-24T09:53:51.507Z,99577.71
2022-12-24T09:58:59.980Z,99585.56
2022-12-24T10:04:08.103Z,99594.59
2022-12-24T10:09:20.334Z,99599.61
2022-12-24T10:14:39.907Z,99607.08
2022-12-24T10:20:26.140Z,99615.36
2022-12-24T10:25:43.453Z,99619.67
2022-12-24T10:30:50.250Z,99630.38
2022-12-24T10:35:55.445Z,99643.83
2022-12-24T10:41:00.970Z,99649.89
2022-12-24T10:46:22.694Z,99657.96
2022-12-24T10:51:38.292Z,99665.40
2022-12-24T10:56:45.124Z,99672.58
2022-12-24T11:01:50.575Z,99677.73
2022-12-24T11:07:03.579Z,99684.14
2022-12-24T11:12:17.662Z,99692.66
2022-12-24T11:17:22.819Z,99696.71
2022-12-24T11:22:31.792Z,99704.35
2022-12-24T11:27:46.317Z,99706.28
2022-12-24T11:32:52.179Z,99718.04
2022-12-24T11:37:58.925Z,99721.41
2022-12-24T11:43:09.592Z,99717.48
2022-12-24T11:48:30.930Z,99724.71
2022-12-24T11:54:03.195Z,99731.20
2022-12-24T11:59:21.327Z,99742.24
2022-12-24T12:04:28.380Z,99750.23
2022-12-24T12:09:35.087Z,99754.46
2022-12-24T12:15:06.341Z,99757.53
2022-12-24T12:20:36.724Z,99768.10
2022-12-24T12:26:31.128Z,99773.23
2022-12-24T12:31:48.403Z,99782.03
2022-12-24T12:36:57.796Z,99789.67
2022-12-24T12:42:01.848Z,99797.11
2022-12-24T12:47:24.776Z,99798.91
2022-12-24T12:53:13.617Z,99804.02
2022-12-24T12:58:42.236Z,99809.90
2022-12-24T13:03:58.909Z,99807.48
2022-12-24T13:09:14.969Z,99821.16
2022-12-24T13:14:18.675Z,99825.64
2022-12-24T13:19:44.007Z,99835.42
2022-12-24T13:24:56.901Z,99840.29
2022-12-24T13:30:12.190Z,99847.60
2022-12-24T13:35:21.575Z,99854.41
2022-12-24T13:40:27.060Z,99855.86
2022-12-24T13:45:31.169Z,99861.20
2022-12-24T13:50:43.674Z,99867.15
2022-12-24T13:55:55.677Z,99878.30
2022-12-24T14:01:01.990Z,99875.75
2022-12-24T14:06:43.777Z,99883.46
2022-12-24T14:11:56.621Z,99882.34
2022-12-24T14:17:19.186Z,99889.71
2022-12-24T14:22:23.507Z,99898.10
2022-12-24T14:27:41.119Z,99898.16
2022-12-24T14:32:45.639Z,99904.95
2022-12-24T14:38:03.304Z,99912.53
2022-12-24T14:43:30.714Z,99923.55
2022-12-24T14:48:49.820Z,99929.20
2022-12-24T14:54:03.522Z,99945.65
2022-12-24T14:59:19.558Z,99962.98
2022-12-24T15:04:23.683Z,99969.13
2022-12-24T15:09:30.139Z,99984.55
2022-12-24T15:14:40.955Z,99989.92
2022-12-24T15:19:48.521Z,99993.66
2022-12-24T15:24:52.905Z,100007.12
2022-12-24T15:29:58.011Z,100013.56
2022-12-24T15:35:01.843Z,100015.33
2022-12-24T15:40:08.712Z,100022.61
2022-12-24T15:45:26.666Z,100021.83
2022-12-24T15:50:35.100Z,100025.46
2022-12-24T15:55:40.794Z,100029.77
2022-12-24T16:00:45.683Z,100035.23
2022-12-24T16:06:02.724Z,100041.71
2022-12-24T16:11:06.376Z,100047.87
2022-12-24T16:16:13.511Z,100058.21
2022-12-24T16:21:30.868Z,100063.91
2022-12-24T16:26:35.713Z,100068.05
2022-12-24T16:31:54.337Z,100068.84
2022-12-24T16:36:59.687Z,100082.08
2022-12-24T16:42:23.274Z,100095.33
2022-12-24T16:47:33.745Z,100104.30
2022-12-24T16:52:41.800Z,100105.03
2022-12-24T16:57:45.605Z,100110.01
2022-12-24T17:02:50.378Z,100112.83
2022-12-24T17:07:54.778Z,100120.41
2022-12-24T17:12:58.641Z,100121.45
2022-12-24T17:18:02.389Z,100129.61
2022-12-24T17:23:06.224Z,100131.85
2022-12-24T17:28:09.878Z,100141.05
2022-12-24T17:33:15.079Z,100155.20
2022-12-24T17:38:19.024Z,100159.27
2022-12-24T17:43:22.796Z,100169.01
2022-12-24T17:48:26.579Z,100168.15
2022-12-24T17:53:30.180Z,100173.02
2022-12-24T17:58:34.337Z,100185.11
2022-12-24T18:03:38.095Z,100189.77
2022-12-24T18:08:43.207Z,100201.73
2022-12-24T18:13:47.984Z,100207.39
2022-12-24T18:18:52.793Z,100209.77
2022-12-24T18:23:57.309Z,100216.81
2022-12-24T18:29:04.885Z,100216.65
2022-12-24T18:34:13.053Z,100220.77
2022-12-24T18:39:16.815Z,100225.09
2022-12-24T18:44:24.860Z,100231.39
2022-12-24T18:49:29.199Z,100228.75
2022-12-24T18:54:32.903Z,100235.73
2022-12-24T18:59:38.253Z,100237.72
2022-12-24T19:04:42.187Z,100246.55
2022-12-24T19:09:48.668Z,100256.36
2022-12-24T19:14:53.541Z,100264.87
2022-12-24T19:19:57.280Z,100256.95
2022-12-24T19:25:01.140Z,100260.66
2022-12-24T19:30:05.796Z,100269.01
2022-12-24T19:35:09.710Z,100282.86
2022-12-24T19:40:13.697Z,100280.13
2022-12-24T19:45:17.534Z,100284.55
2022-12-24T19:50:22.104Z,100285.02
2022-12-24T19:55:26.032Z,100287.44
2022-12-24T20:00:30.083Z,100290.20
2022-12-24T20:05:33.743Z,100295.39
2022-12-24T20:10:44.716Z,100303.73
2022-12-24T20:15:48.623Z,100312.34
2022-12-24T20:20:52.413Z,100320.97
2022-12-24T20:26:01.273Z,100333.10
2022-12-24T20:31:11.806Z,100339.05
2022-12-24T20:36:17.859Z,100341.67
2022-12-24T20:41:24.236Z,100347.05
2022-12-24T20:46:29.297Z,100350.02
2022-12-24T20:51:33.317Z,100352.73
2022-12-24T20:56:37.083Z,100350.21
2022-12-24T21:01:40.931Z,100347.40
2022-12-24T21:06:45.019Z,100353.71
2022-12-24T21:11:51.992Z,100362.87
2022-12-24T21:16:56.478Z,100373.89
2022-12-24T21:22:00.486Z,100370.80
2022-12-24T21:27:04.335Z,100368.16
2022-12-24T21:32:08.242Z,100370.81
2022-12-24T21:37:12.134Z,100372.16
2022-12-24T21:42:15.969Z,100368.53
2022-12-24T21:47:19.891Z,100368.85
2022-12-24T21:52:23.620Z,100374.96
2022-12-24T21:57:45.830Z,100377.07
2022-12-24T22:02:51.671Z,100371.41
2022-12-24T22:08:14.913Z,100372.68
2022-12-24T22:13:19.342Z,100378.69
2022-12-24T22:18:25.394Z,100386.40
2022-12-24T22:23:29.218Z,100389.02
2022-12-24T22:28:32.873Z,100394.06
2022-12-24T22:33:36.673Z,100396.77
2022-12-24T22:38:43.643Z,100397.89
2022-12-24T22:43:47.352Z,100397.34
2022-12-24T22:48:51.199Z,100400.52
2022-12-24T22:53:55.056Z,100401.73
2022-12-24T22:58:59.298Z,100409.27
2022-12-24T23:04:04.019Z,100407.62
2022-12-24T23:09:09.841Z,100404.10
2022-12-24T23:14:37.900Z,100416.73
2022-12-24T23:19:42.203Z,100427.13
2022-12-24T23:24:48.765Z,100435.30
2022-12-24T23:29:52.593Z,100440.52
2022-12-24T23:34:56.324Z,100447.06
2022-12-24T23:40:00.294Z,100456.13
2022-12-24T23:45:04.460Z,100453.71
2022-12-24T23:50:08.959Z,100459.29
2022-12-24T23:55:13.279Z,100474.38
